createdAt,value
2023-04-23T00:02:57.765Z,100098.19
2023-04-23T00:06:05.764Z,100086.69
2023-04-23T00:09:08.769Z,100089.75
2023-04-23T00:12:12.132Z,100098.34
2023-04-23T00:15:15.184Z,100113.50
2023-04-23T00:18:18.094Z,100111.09
2023-04-23T00:21:20.427Z,100108.25
2023-04-23T00:24:23.242Z,100084.63
2023-04-23T00:27:25.975Z,100119.31
2023-04-23T00:30:28.974Z,100105.75
2023-04-23T00:33:31.299Z,100081.50
2023-04-23T00:36:33.859Z,100091.41
2023-04-23T00:39:38.704Z,100109.16
2023-04-23T00:42:41.848Z,100089.59
2023-04-23T00:45:44.570Z,100097.09
2023-04-23T00:48:47.779Z,100105.16
2023-04-23T00:51:50.042Z,100103.56
2023-04-23T00:54:53.995Z,100109.78
2023-04-23T00:57:56.584Z,100109.34
2023-04-23T01:00:59.581Z,100102.22
2023-04-23T01:04:02.446Z,100066.81
2023-04-23T01:07:05.376Z,100102.50
2023-04-23T01:10:08.435Z,100074.31
2023-04-23T01:13:13.345Z,100102.31
2023-04-23T01:16:15.854Z,100104.66
2023-04-23T01:19:18.532Z,100098.50
2023-04-23T01:22:23.049Z,100096.44
2023-04-23T01:25:26.123Z,100078.72
2023-04-23T01:28:30.382Z,100075.44
2023-04-23T01:31:33.327Z,100072.66
2023-04-23T01:34:38.128Z,100099.84
2023-04-23T01:37:42.294Z,100069.00
2023-04-23T01:40:44.697Z,100075.69
2023-04-23T01:43:47.280Z,100097.72
2023-04-23T01:46:49.576Z,100074.37
2023-04-23T01:49:52.213Z,100058.06
2023-04-23T01:52:54.899Z,100083.53
2023-04-23T01:55:58.274Z,100071.06
2023-04-23T01:59:00.615Z,100093.97
2023-04-23T02:02:03.298Z,100069.38
2023-04-23T02:05:11.595Z,100060.63
2023-04-23T02:08:14.145Z,100087.00
2023-04-23T02:11:16.751Z,100082.94
2023-04-23T02:14:19.546Z,100061.25
2023-04-23T02:17:23.243Z,100082.47
2023-04-23T02:20:26.180Z,100056.44
2023-04-23T02:23:28.528Z,100057.25
2023-04-23T02:26:31.464Z,100055.38
2023-04-23T02:29:34.137Z,100064.00
2023-04-23T02:32:37.446Z,100057.22
2023-04-23T02:35:40.924Z,100052.78
2023-04-23T02:38:45.557Z,100057.13
2023-04-23T02:41:47.894Z,100075.16
2023-04-23T02:44:50.509Z,100082.72
2023-04-23T02:47:53.634Z,100060.00
2023-04-23T02:50:56.538Z,100087.44
2023-04-23T02:53:59.274Z,100068.88
2023-04-23T02:57:02.245Z,100073.81
2023-04-23T03:00:07.248Z,100070.59
2023-04-23T03:03:12.508Z,100054.50
2023-04-23T03:06:15.416Z,100069.09
2023-04-23T03:09:18.182Z,100073.91
2023-04-23T03:12:20.518Z,100047.16
2023-04-23T03:15:23.274Z,100075.50
2023-04-23T03:18:25.792Z,100069.91
2023-04-23T03:21:28.552Z,100064.25
2023-04-23T03:24:32.181Z,100051.88
2023-04-23T03:27:35.291Z,100051.00
2023-04-23T03:30:37.830Z,100072.50
2023-04-23T03:33:40.507Z,100062.84
2023-04-23T03:36:44.828Z,100066.88
2023-04-23T03:39:47.654Z,100071.59
2023-04-23T03:42:50.668Z,100052.12
2023-04-23T03:45:54.274Z,100070.94
2023-04-23T03:48:57.622Z,100055.13
2023-04-23T03:52:00.589Z,100057.53
2023-04-23T03:55:03.905Z,100053.53
2023-04-23T03:58:06.836Z,100058.94
2023-04-23T04:01:09.773Z,100085.00
2023-04-23T04:04:12.910Z,100068.03
2023-04-23T04:07:15.733Z,100066.88
2023-04-23T04:10:18.358Z,100057.22
2023-04-23T04:13:20.646Z,100059.28
2023-04-23T04:16:23.328Z,100060.44
2023-04-23T04:19:25.678Z,100098.34
2023-04-23T04:22:29.675Z,100072.91
2023-04-23T04:25:32.083Z,100090.59
2023-04-23T04:28:36.395Z,100095.94
2023-04-23T04:31:39.228Z,100105.72
2023-04-23T04:34:41.950Z,100076.31
2023-04-23T04:37:44.630Z,100107.22
2023-04-23T04:40:49.196Z,100102.41
2023-04-23T04:43:52.499Z,100106.34
2023-04-23T04:46:55.202Z,100080.50
2023-04-23T04:49:57.862Z,100088.13
2023-04-23T04:53:00.599Z,100104.44
2023-04-23T04:56:03.073Z,100110.19
2023-04-23T04:59:05.859Z,100107.88
2023-04-23T05:02:08.314Z,100096.16
2023-04-23T05:05:11.070Z,100126.09
2023-04-23T05:08:18.530Z,100108.72
2023-04-23T05:11:29.502Z,100119.78
2023-04-23T05:14:45.529Z,100117.72
2023-04-23T05:17:53.387Z,100056.44
2023-04-23T05:20:55.886Z,100099.00
2023-04-23T05:23:58.447Z,100092.31
2023-04-23T05:27:01.384Z,100127.09
2023-04-23T05:30:06.565Z,100124.09
2023-04-23T05:33:09.039Z,100103.31
2023-04-23T05:36:11.668Z,100101.00
2023-04-23T05:39:13.962Z,100121.59
2023-04-23T05:42:16.580Z,100083.34
2023-04-23T05:45:18.942Z,100096.19
2023-04-23T05:48:21.525Z,100124.22
2023-04-23T05:51:23.921Z,100097.31
2023-04-23T05:54:26.478Z,100126.25
2023-04-23T05:57:28.863Z,100124.09
2023-04-23T06:00:31.526Z,100126.69
2023-04-23T06:03:34.922Z,100124.03
2023-04-23T06:06:37.435Z,100128.16
2023-04-23T06:09:40.035Z,100085.44
2023-04-23T06:12:42.492Z,100096.38
2023-04-23T06:15:45.183Z,100127.63
2023-04-23T06:18:47.628Z,100107.25
2023-04-23T06:21:51.192Z,100131.03
2023-04-23T06:24:53.560Z,100126.59
2023-04-23T06:27:58.226Z,100110.34
2023-04-23T06:31:02.689Z,100128.37
2023-04-23T06:34:05.544Z,100127.34
2023-04-23T06:37:08.733Z,100112.22
2023-04-23T06:40:11.546Z,100124.47
2023-04-23T06:43:14.629Z,100138.44
2023-04-23T06:46:21.403Z,100117.47
2023-04-23T06:49:23.756Z,100111.91
2023-04-23T06:52:27.146Z,100123.78
2023-04-23T06:55:29.542Z,100139.00
2023-04-23T06:58:32.376Z,100140.97
2023-04-23T07:01:35.652Z,100136.09
2023-04-23T07:04:38.426Z,100110.78
2023-04-23T07:07:43.479Z,100111.00
2023-04-23T07:10:46.506Z,100136.84
2023-04-23T07:13:48.868Z,100135.47
2023-04-23T07:16:51.877Z,100113.69
2023-04-23T07:19:54.256Z,100129.13
2023-04-23T07:23:00.178Z,100132.13
2023-04-23T07:26:04.271Z,100135.53
2023-04-23T07:29:08.026Z,100134.22
2023-04-23T07:32:10.390Z,100107.16
2023-04-23T07:35:13.123Z,100129.00
2023-04-23T07:38:15.474Z,100125.16
2023-04-23T07:41:18.394Z,100113.19
2023-04-23T07:44:20.829Z,100101.41
2023-04-23T07:47:23.633Z,100097.97
2023-04-23T07:50:26.158Z,100092.94
2023-04-23T07:53:29.260Z,100093.88
2023-04-23T07:56:32.583Z,100100.28
2023-04-23T07:59:35.215Z,100105.16
2023-04-23T08:02:37.728Z,100123.19
2023-04-23T08:05:41.454Z,100108.47
2023-04-23T08:08:44.556Z,100110.88
2023-04-23T08:11:48.390Z,100098.06
2023-04-23T08:14:51.007Z,100090.12
2023-04-23T08:17:54.675Z,100125.22
2023-04-23T08:20:57.561Z,100110.84
2023-04-23T08:24:00.365Z,100094.06
2023-04-23T08:27:02.984Z,100098.00
2023-04-23T08:30:06.906Z,100096.44
2023-04-23T08:33:09.169Z,100098.34
2023-04-23T08:36:11.793Z,100107.34
2023-04-23T08:39:14.475Z,100119.00
2023-04-23T08:42:46.037Z,100083.88
2023-04-23T08:45:49.577Z,100101.59
2023-04-23T08:48:53.380Z,100087.38
2023-04-23T08:51:59.770Z,100097.75
2023-04-23T08:55:07.531Z,100095.38
2023-04-23T08:58:10.064Z,100076.91
2023-04-23T09:01:12.756Z,100092.78
2023-04-23T09:04:20.466Z,100069.31
2023-04-23T09:07:23.420Z,100069.78
2023-04-23T09:10:25.845Z,100088.22
2023-04-23T09:13:31.917Z,100091.37
2023-04-23T09:16:34.457Z,100070.53
2023-04-23T09:19:39.757Z,100061.97
2023-04-23T09:22:49.942Z,100084.81
2023-04-23T09:25:52.742Z,100074.75
2023-04-23T09:28:55.996Z,100077.19
2023-04-23T09:32:10.340Z,100062.22
2023-04-23T09:35:17.666Z,100074.34
2023-04-23T09:38:20.539Z,100067.22
2023-04-23T09:41:25.563Z,100052.34
2023-04-23T09:44:32.615Z,100056.12
2023-04-23T09:47:38.653Z,100074.25
2023-04-23T09:50:41.376Z,100071.09
2023-04-23T09:53:44.225Z,100070.09
2023-04-23T09:56:51.581Z,100047.75
2023-04-23T10:00:07.334Z,100065.25
2023-04-23T10:03:16.375Z,100060.50
2023-04-23T10:06:36.882Z,100031.34
2023-04-23T10:09:42.185Z,100036.38
2023-04-23T10:12:54.374Z,100047.44
2023-04-23T10:16:10.282Z,100022.59
2023-04-23T10:19:23.787Z,99999.88
2023-04-23T10:22:29.479Z,100011.66
2023-04-23T10:25:32.748Z,100023.81
2023-04-23T10:28:36.374Z,100010.34
2023-04-23T10:31:39.436Z,100027.53
2023-04-23T10:34:42.508Z,100008.38
2023-04-23T10:37:46.635Z,100030.84
2023-04-23T10:40:51.027Z,100026.44
2023-04-23T10:43:54.037Z,100013.00
2023-04-23T10:47:00.651Z,100016.16
2023-04-23T10:50:19.509Z,99996.97
2023-04-23T10:53:21.949Z,100012.56
2023-04-23T10:56:28.148Z,99987.38
2023-04-23T10:59:32.281Z,100009.81
2023-04-23T11:02:44.938Z,99989.91
2023-04-23T11:05:47.402Z,100012.34
2023-04-23T11:08:54.299Z,99990.31
2023-04-23T11:12:01.641Z,99986.06
2023-04-23T11:15:15.480Z,100006.94
2023-04-23T11:18:17.726Z,100002.56
2023-04-23T11:21:20.560Z,99998.56
2023-04-23T11:24:24.011Z,99975.41
2023-04-23T11:27:26.959Z,99991.19
2023-04-23T11:30:30.802Z,99996.78
2023-04-23T11:33:33.400Z,99975.75
2023-04-23T11:36:35.962Z,99985.44
2023-04-23T11:39:41.256Z,99977.63
2023-04-23T11:42:49.368Z,99974.56
2023-04-23T11:45:52.136Z,99997.97
2023-04-23T11:48:54.773Z,99959.31
2023-04-23T11:52:01.302Z,99975.28
2023-04-23T11:55:06.353Z,99963.06
2023-04-23T11:58:08.904Z,99952.97
2023-04-23T12:01:14.953Z,99956.88
2023-04-23T12:04:25.664Z,99950.13
2023-04-23T12:07:34.666Z,99942.22
2023-04-23T12:10:46.893Z,99954.66
2023-04-23T12:13:49.491Z,99921.56
2023-04-23T12:16:52.293Z,99952.63
2023-04-23T12:19:54.640Z,99936.97
2023-04-23T12:23:04.729Z,99915.78
2023-04-23T12:26:20.362Z,99941.72
2023-04-23T12:29:23.431Z,99909.19
2023-04-23T12:32:27.034Z,99928.47
2023-04-23T12:35:43.831Z,99928.75
2023-04-23T12:38:46.173Z,99934.56
2023-04-23T12:41:54.258Z,99919.84
2023-04-23T12:45:05.547Z,99905.75
2023-04-23T12:48:08.340Z,99904.88
2023-04-23T12:51:10.854Z,99917.53
2023-04-23T12:54:13.511Z,99899.25
2023-04-23T12:57:15.887Z,99911.91
2023-04-23T13:00:18.670Z,99913.19
2023-04-23T13:03:21.220Z,99905.09
2023-04-23T13:06:23.960Z,99883.88
2023-04-23T13:09:28.086Z,99890.59
2023-04-23T13:12:30.987Z,99891.97
2023-04-23T13:15:33.302Z,99885.34
2023-04-23T13:18:35.927Z,99866.97
2023-04-23T13:21:38.203Z,99864.28
2023-04-23T13:24:40.795Z,99870.84
2023-04-23T13:27:43.220Z,99875.75
2023-04-23T13:30:45.811Z,99870.78
2023-04-23T13:33:48.302Z,99860.09
2023-04-23T13:36:51.081Z,99854.38
2023-04-23T13:39:53.405Z,99849.59
2023-04-23T13:42:56.050Z,99841.81
2023-04-23T13:45:59.059Z,99849.81
2023-04-23T13:49:01.733Z,99823.28
2023-04-23T13:52:06.939Z,99839.06
2023-04-23T13:55:10.430Z,99815.06
2023-04-23T13:58:12.786Z,99815.44
2023-04-23T14:01:15.846Z,99820.25
2023-04-23T14:04:23.947Z,99809.13
2023-04-23T14:07:26.416Z,99827.53
2023-04-23T14:10:29.088Z,99823.72
2023-04-23T14:13:32.834Z,99841.44
2023-04-23T14:16:35.746Z,99805.69
2023-04-23T14:19:38.086Z,99827.66
2023-04-23T14:22:42.129Z,99801.97
2023-04-23T14:25:46.836Z,99806.53
2023-04-23T14:28:52.206Z,99803.75
2023-04-23T14:31:54.652Z,99809.03
2023-04-23T14:34:57.472Z,99804.28
2023-04-23T14:38:00.191Z,99804.16
2023-04-23T14:41:02.884Z,99777.84
2023-04-23T14:44:05.249Z,99787.13
2023-04-23T14:47:10.146Z,99801.47
2023-04-23T14:50:12.512Z,99790.28
2023-04-23T14:53:15.408Z,99793.47
2023-04-23T14:56:17.883Z,99791.94
2023-04-23T14:59:21.599Z,99773.06
2023-04-23T15:02:24.130Z,99775.62
2023-04-23T15:05:26.887Z,99777.97
2023-04-23T15:08:29.302Z,99782.84
2023-04-23T15:11:32.535Z,99774.25
2023-04-23T15:14:37.578Z,99755.88
2023-04-23T15:17:40.807Z,99782.91
2023-04-23T15:20:44.388Z,99757.13
2023-04-23T15:23:46.988Z,99778.06
2023-04-23T15:26:49.676Z,99786.94
2023-04-23T15:29:52.322Z,99783.84
2023-04-23T15:32:57.975Z,99779.19
2023-04-23T15:36:00.663Z,99764.91
2023-04-23T15:39:03.242Z,99745.91
2023-04-23T15:42:06.026Z,99735.63
2023-04-23T15:45:09.419Z,99768.66
2023-04-23T15:48:11.976Z,99771.09
2023-04-23T15:51:14.371Z,99767.53
2023-04-23T15:54:17.268Z,99752.09
2023-04-23T15:57:19.918Z,99744.97
2023-04-23T16:00:22.689Z,99758.88
2023-04-23T16:03:25.707Z,99759.69
2023-04-23T16:06:28.652Z,99757.34
2023-04-23T16:09:32.743Z,99730.34
2023-04-23T16:12:35.218Z,99758.25
2023-04-23T16:15:37.959Z,99729.63
2023-04-23T16:18:40.273Z,99744.34
2023-04-23T16:21:42.964Z,99748.81
2023-04-23T16:24:45.463Z,99739.28
2023-04-23T16:27:48.482Z,99728.22
2023-04-23T16:30:50.844Z,99723.44
2023-04-23T16:33:55.866Z,99723.06
2023-04-23T16:36:58.169Z,99739.75
2023-04-23T16:40:02.173Z,99733.78
2023-04-23T16:43:05.601Z,99731.81
2023-04-23T16:46:10.617Z,99727.13
2023-04-23T16:49:13.627Z,99722.72
2023-04-23T16:52:16.213Z,99706.06
2023-04-23T16:55:18.577Z,99723.56
2023-04-23T16:58:23.359Z,99717.59
2023-04-23T17:01:25.725Z,99712.44
2023-04-23T17:04:28.755Z,99698.16
2023-04-23T17:07:31.197Z,99718.03
2023-04-23T17:10:33.837Z,99689.81
2023-04-23T17:13:37.470Z,99695.47
2023-04-23T17:16:40.142Z,99693.12
2023-04-23T17:19:42.537Z,99714.22
2023-04-23T17:22:45.114Z,99707.09
2023-04-23T17:25:47.550Z,99701.56
2023-04-23T17:28:50.242Z,99695.22
2023-04-23T17:31:53.068Z,99698.44
2023-04-23T17:35:06.317Z,99727.09
2023-04-23T17:38:12.681Z,99704.84
2023-04-23T17:41:16.941Z,99704.91
2023-04-23T17:44:19.431Z,99700.94
2023-04-23T17:47:22.119Z,99719.66
2023-04-23T17:50:24.534Z,99720.47
2023-04-23T17:53:27.186Z,99716.12
2023-04-23T17:56:29.650Z,99722.50
2023-04-23T17:59:32.323Z,99712.19
2023-04-23T18:02:40.169Z,99730.50
2023-04-23T18:05:43.282Z,99728.13
2023-04-23T18:08:45.633Z,99710.63
2023-04-23T18:11:48.328Z,99712.66
2023-04-23T18:14:50.730Z,99728.97
2023-04-23T18:17:55.748Z,99728.16
2023-04-23T18:20:58.452Z,99709.09
2023-04-23T18:24:01.084Z,99715.50
2023-04-23T18:27:03.470Z,99715.88
2023-04-23T18:30:08.340Z,99742.53
2023-04-23T18:33:41.620Z,99742.56
2023-04-23T18:36:44.896Z,99739.41
2023-04-23T18:39:47.265Z,99725.88
2023-04-23T18:42:49.873Z,99757.69
2023-04-23T18:45:52.265Z,99760.47
2023-04-23T18:49:06.079Z,99759.69
2023-04-23T18:52:08.494Z,99752.94
2023-04-23T18:55:11.113Z,99752.13
2023-04-23T18:58:13.454Z,99742.94
2023-04-23T19:01:16.447Z,99738.56
2023-04-23T19:04:19.089Z,99738.56
2023-04-23T19:07:21.933Z,99732.19
2023-04-23T19:10:24.269Z,99744.13
2023-04-23T19:13:26.926Z,99766.41
2023-04-23T19:16:29.622Z,99757.25
2023-04-23T19:19:35.229Z,99764.41
2023-04-23T19:22:41.302Z,99762.41
2023-04-23T19:25:44.624Z,99759.22
2023-04-23T19:28:46.941Z,99771.16
2023-04-23T19:31:49.666Z,99751.25
2023-04-23T19:34:51.984Z,99742.06
2023-04-23T19:37:54.616Z,99739.28
2023-04-23T19:40:57.043Z,99763.56
2023-04-23T19:43:59.636Z,99743.25
2023-04-23T19:47:02.157Z,99753.19
2023-04-23T19:50:09.966Z,99757.59
2023-04-23T19:53:12.478Z,99739.28
2023-04-23T19:56:15.279Z,99757.97
2023-04-23T19:59:20.931Z,99755.19
2023-04-23T20:02:23.920Z,99752.75
2023-04-23T20:05:26.836Z,99751.19
2023-04-23T20:08:41.376Z,99723.28
2023-04-23T20:11:45.670Z,99747.19
2023-04-23T20:14:48.119Z,99729.59
2023-04-23T20:17:53.653Z,99719.25
2023-04-23T20:20:56.147Z,99744.34
2023-04-23T20:23:58.733Z,99729.19
2023-04-23T20:27:01.594Z,99716.06
2023-04-23T20:30:05.302Z,99708.91
2023-04-23T20:33:08.551Z,99708.12
2023-04-23T20:36:11.551Z,99725.63
2023-04-23T20:39:14.057Z,99708.09
2023-04-23T20:42:16.834Z,99723.25
2023-04-23T20:45:20.648Z,99703.31
2023-04-23T20:48:25.311Z,99705.69
2023-04-23T20:51:33.193Z,99702.47
2023-04-23T20:54:36.755Z,99706.06
2023-04-23T20:57:39.079Z,99729.53
2023-04-23T21:00:41.880Z,99700.88
2023-04-23T21:03:44.285Z,99707.25
2023-04-23T21:06:51.087Z,99700.88
2023-04-23T21:09:53.437Z,99723.97
2023-04-23T21:12:56.144Z,99727.13
2023-04-23T21:15:58.543Z,99720.78
2023-04-23T21:19:01.400Z,99715.62
2023-04-23T21:22:03.762Z,99690.91
2023-04-23T21:25:06.797Z,99686.53
2023-04-23T21:28:10.123Z,99689.31
2023-04-23T21:31:17.770Z,99709.63
2023-04-23T21:34:21.326Z,99705.66
2023-04-23T21:37:23.806Z,99703.25
2023-04-23T21:40:26.076Z,99691.72
2023-04-23T21:43:32.549Z,99688.13
2023-04-23T21:46:34.889Z,99690.94
2023-04-23T21:49:37.533Z,99689.72
2023-04-23T21:52:42.988Z,99664.59
2023-04-23T21:59:05.324Z,99680.97
2023-04-23T22:02:08.037Z,99652.31
2023-04-23T22:05:11.928Z,99668.63
2023-04-23T22:08:16.522Z,99668.63
2023-04-23T22:11:19.231Z,99662.69
2023-04-23T22:14:21.622Z,99637.63
2023-04-23T22:17:26.251Z,99638.03
2023-04-23T22:20:30.617Z,99633.25
2023-04-23T22:23:33.324Z,99653.97
2023-04-23T22:26:36.185Z,99627.69
2023-04-23T22:29:38.799Z,99626.91
2023-04-23T22:32:41.130Z,99627.69
2023-04-23T22:35:43.968Z,99646.78
2023-04-23T22:38:46.357Z,99644.44
2023-04-23T22:41:49.011Z,99637.28
2023-04-23T22:44:51.455Z,99631.72
2023-04-23T22:47:54.199Z,99627.34
2023-04-23T22:50:57.619Z,99636.44
2023-04-23T22:54:00.233Z,99608.56
2023-04-23T22:57:03.016Z,99608.56
2023-04-23T23:00:11.367Z,99628.06
2023-04-23T23:03:13.979Z,99602.16
2023-04-23T23:06:17.711Z,99604.56
2023-04-23T23:09:20.156Z,99614.06
2023-04-23T23:12:22.784Z,99597.63
2023-04-23T23:15:25.080Z,99609.91
2023-04-23T23:18:27.684Z,99587.09
2023-04-23T23:21:30.238Z,99581.53
2023-04-23T23:24:32.863Z,99593.59
2023-04-23T23:27:35.149Z,99577.69
2023-04-23T23:30:37.844Z,99574.87
2023-04-23T23:33:40.195Z,99568.59
2023-04-23T23:36:45.208Z,99565.44
2023-04-23T23:39:47.807Z,99567.84
2023-04-23T23:42:50.375Z,99586.22
2023-04-23T23:45:52.906Z,99584.97
2023-04-23T23:48:55.587Z,99581.44
2023-04-23T23:51:58.147Z,99557.53
2023-04-23T23:55:00.825Z,99555.12
2023-04-23T23:58:03.204Z,99551.19
